sensor_id;sensor_type;location;lat;lon;timestamp;pressure;altitude;pressure_sealevel;temperature;humidity
74542;BME280;63015;45.378;20.360;2023-05-02T00:00:44;100734.38;;;14.89;55.62
74542;BME280;63015;45.378;20.360;2023-05-02T00:02:44;100729.22;;;14.83;55.73
74542;BME280;63015;45.378;20.360;2023-05-02T00:04:46;100732.69;;;14.85;55.84
74542;BME280;63015;45.378;20.360;2023-05-02T00:06:47;100734.50;;;14.79;55.86
74542;BME280;63015;45.378;20.360;2023-05-02T00:08:48;100737.19;;;14.75;55.96
74542;BME280;63015;45.378;20.360;2023-05-02T00:10:49;100731.94;;;14.75;56.06
74542;BME280;63015;45.378;20.360;2023-05-02T00:12:50;100731.06;;;14.74;56.14
74542;BME280;63015;45.378;20.360;2023-05-02T00:14:50;100735.53;;;14.68;56.08
74542;BME280;63015;45.378;20.360;2023-05-02T00:16:51;100732.91;;;14.68;56.11
74542;BME280;63015;45.378;20.360;2023-05-02T00:18:52;100733.75;;;14.68;55.92
74542;BME280;63015;45.378;20.360;2023-05-02T00:20:52;100730.31;;;14.61;56.20
74542;BME280;63015;45.378;20.360;2023-05-02T00:22:55;100728.66;;;14.56;56.57
74542;BME280;63015;45.378;20.360;2023-05-02T00:24:56;100725.16;;;14.57;56.35
74542;BME280;63015;45.378;20.360;2023-05-02T00:26:57;100724.28;;;14.56;56.26
74542;BME280;63015;45.378;20.360;2023-05-02T00:28:58;100715.56;;;14.54;56.44
74542;BME280;63015;45.378;20.360;2023-05-02T00:31:00;100711.28;;;14.47;56.54
74542;BME280;63015;45.378;20.360;2023-05-02T00:33:01;100724.41;;;14.45;56.59
74542;BME280;63015;45.378;20.360;2023-05-02T00:35:03;100718.34;;;14.40;56.54
74542;BME280;63015;45.378;20.360;2023-05-02T00:37:03;100717.47;;;14.43;56.72
74542;BME280;63015;45.378;20.360;2023-05-02T00:39:04;100724.41;;;14.45;56.24
74542;BME280;63015;45.378;20.360;2023-05-02T00:41:05;100719.19;;;14.44;56.41
74542;BME280;63015;45.378;20.360;2023-05-02T00:43:06;100720.06;;;14.44;56.42
74542;BME280;63015;45.378;20.360;2023-05-02T00:45:07;100721.84;;;14.41;56.22
74542;BME280;63015;45.378;20.360;2023-05-02T00:47:08;100717.53;;;14.37;56.59
74542;BME280;63015;45.378;20.360;2023-05-02T00:49:08;100718.31;;;14.43;56.06
74542;BME280;63015;45.378;20.360;2023-05-02T00:51:09;100720.09;;;14.41;56.08
74542;BME280;63015;45.378;20.360;2023-05-02T00:53:12;100727.97;;;14.41;56.07
74542;BME280;63015;45.378;20.360;2023-05-02T00:55:12;100728.78;;;14.43;56.11
74542;BME280;63015;45.378;20.360;2023-05-02T00:57:13;100722.69;;;14.43;55.93
74542;BME280;63015;45.378;20.360;2023-05-02T00:59:14;100727.94;;;14.43;55.73
74542;BME280;63015;45.378;20.360;2023-05-02T01:05:50;100727.97;;;14.41;55.48
74542;BME280;63015;45.378;20.360;2023-05-02T01:10:13;100732.31;;;14.44;55.41
74542;BME280;63015;45.378;20.360;2023-05-02T01:12:26;100725.31;;;14.43;55.38
74542;BME280;63015;45.378;20.360;2023-05-02T01:14:28;100727.06;;;14.42;55.23
74542;BME280;63015;45.378;20.360;2023-05-02T01:16:31;100722.75;;;14.37;55.34
74542;BME280;63015;45.378;20.360;2023-05-02T01:18:34;100729.72;;;14.39;55.30
74542;BME280;63015;45.378;20.360;2023-05-02T01:20:40;100727.97;;;14.41;55.07
74542;BME280;63015;45.378;20.360;2023-05-02T01:22:42;100735.81;;;14.40;55.02
74542;BME280;63015;45.378;20.360;2023-05-02T01:25:07;100731.50;;;14.39;55.05
74542;BME280;63015;45.378;20.360;2023-05-02T01:29:35;100718.44;;;14.34;54.99
74542;BME280;63015;45.378;20.360;2023-05-02T01:31:38;100727.25;;;14.28;55.24
74542;BME280;63015;45.378;20.360;2023-05-02T01:33:42;100720.28;;;14.26;55.08
74542;BME280;63015;45.378;20.360;2023-05-02T01:35:49;100725.59;;;14.20;55.10
74542;BME280;63015;45.378;20.360;2023-05-02T01:37:51;100717.75;;;14.18;55.23
74542;BME280;63015;45.378;20.360;2023-05-02T01:39:54;100715.13;;;14.18;55.09
74542;BME280;63015;45.378;20.360;2023-05-02T01:41:57;100716.88;;;14.16;55.11
74542;BME280;63015;45.378;20.360;2023-05-02T01:44:00;100718.63;;;14.17;54.84
74542;BME280;63015;45.378;20.360;2023-05-02T01:46:01;100717.88;;;14.06;55.13
74542;BME280;63015;45.378;20.360;2023-05-02T01:48:05;100710.81;;;14.12;54.85
74542;BME280;63015;45.378;20.360;2023-05-02T01:50:09;100708.19;;;14.11;54.66
74542;BME280;63015;45.378;20.360;2023-05-02T01:52:11;100712.56;;;14.12;54.56
74542;BME280;63015;45.378;20.360;2023-05-02T01:54:15;100705.53;;;14.17;54.26
74542;BME280;63015;45.378;20.360;2023-05-02T01:56:17;100703.78;;;14.16;54.34
74542;BME280;63015;45.378;20.360;2023-05-02T01:58:19;100704.72;;;14.12;54.22
74542;BME280;63015;45.378;20.360;2023-05-02T02:00:21;100704.72;;;14.12;54.08
74542;BME280;63015;45.378;20.360;2023-05-02T02:02:24;100703.81;;;14.11;53.77
74542;BME280;63015;45.378;20.360;2023-05-02T02:04:27;100702.06;;;14.13;53.57
74542;BME280;63015;45.378;20.360;2023-05-02T02:06:28;100697.75;;;14.09;53.54
74542;BME280;63015;45.378;20.360;2023-05-02T02:08:29;100696.81;;;14.13;53.11
74542;BME280;63015;45.378;20.360;2023-05-02T02:10:35;100693.41;;;14.07;53.37
74542;BME280;63015;45.378;20.360;2023-05-02T02:12:52;100691.66;;;14.07;52.90
74542;BME280;63015;45.378;20.360;2023-05-02T02:14:58;100702.94;;;14.12;52.85
74542;BME280;63015;45.378;20.360;2023-05-02T02:17:01;100696.78;;;14.18;52.42
74542;BME280;63015;45.378;20.360;2023-05-02T02:19:06;100694.94;;;14.25;51.95
74542;BME280;63015;45.378;20.360;2023-05-02T02:21:08;100691.44;;;14.26;51.92
74542;BME280;63015;45.378;20.360;2023-05-02T02:23:12;100697.50;;;14.31;51.81
74542;BME280;63015;45.378;20.360;2023-05-02T02:25:17;100688.72;;;14.34;51.37
74542;BME280;63015;45.378;20.360;2023-05-02T02:27:18;100696.50;;;14.41;51.01
74542;BME280;63015;45.378;20.360;2023-05-02T02:29:19;100705.19;;;14.46;51.05
74542;BME280;63015;45.378;20.360;2023-05-02T02:31:20;100693.78;;;14.47;50.88
74542;BME280;63015;45.378;20.360;2023-05-02T02:33:23;100694.63;;;14.50;50.84
74542;BME280;63015;45.378;20.360;2023-05-02T02:35:36;100693.75;;;14.51;50.76
74542;BME280;63015;45.378;20.360;2023-05-02T02:37:53;100688.44;;;14.55;50.68
74542;BME280;63015;45.378;20.360;2023-05-02T02:44:09;100695.44;;;14.56;50.50
74542;BME280;63015;45.378;20.360;2023-05-02T02:46:48;100685.91;;;14.47;50.82
74542;BME280;63015;45.378;20.360;2023-05-02T02:49:01;100685.88;;;14.52;50.83
74542;BME280;63015;45.378;20.360;2023-05-02T02:51:13;100686.81;;;14.46;51.09
74542;BME280;63015;45.378;20.360;2023-05-02T02:53:23;100691.16;;;14.49;50.84
74542;BME280;63015;45.378;20.360;2023-05-02T02:57:54;100685.91;;;14.51;50.89
74542;BME280;63015;45.378;20.360;2023-05-02T03:00:18;100692.06;;;14.45;51.03
74542;BME280;63015;45.378;20.360;2023-05-02T03:02:21;100686.81;;;14.48;50.92
74542;BME280;63015;45.378;20.360;2023-05-02T03:04:26;100686.00;;;14.43;51.08
74542;BME280;63015;45.378;20.360;2023-05-02T03:06:28;100680.78;;;14.40;50.90
74542;BME280;63015;45.378;20.360;2023-05-02T03:08:41;100685.09;;;14.42;50.88
74542;BME280;63015;45.378;20.360;2023-05-02T03:10:46;100690.34;;;14.42;50.91
74542;BME280;63015;45.378;20.360;2023-05-02T03:12:46;100693.06;;;14.38;50.94
74542;BME280;63015;45.378;20.360;2023-05-02T03:14:48;100691.25;;;14.43;50.52
74542;BME280;63015;45.378;20.360;2023-05-02T03:16:50;100687.78;;;14.39;50.74
74542;BME280;63015;45.378;20.360;2023-05-02T03:18:51;100698.34;;;14.31;50.75
74542;BME280;63015;45.378;20.360;2023-05-02T03:20:52;100700.13;;;14.31;50.91
74542;BME280;63015;45.378;20.360;2023-05-02T03:22:53;100702.75;;;14.31;50.63
74542;BME280;63015;45.378;20.360;2023-05-02T03:24:54;100696.63;;;14.29;50.67
74542;BME280;63015;45.378;20.360;2023-05-02T03:26:55;100701.88;;;14.30;50.59
74542;BME280;63015;45.378;20.360;2023-05-02T03:28:59;100706.19;;;14.35;50.41
74542;BME280;63015;45.378;20.360;2023-05-02T03:31:06;100703.66;;;14.25;50.50
74542;BME280;63015;45.378;20.360;2023-05-02T03:33:10;100714.13;;;14.30;50.34
74542;BME280;63015;45.378;20.360;2023-05-02T03:35:14;100707.06;;;14.35;50.26
74542;BME280;63015;45.378;20.360;2023-05-02T03:37:17;100706.19;;;14.33;50.08
74542;BME280;63015;45.378;20.360;2023-05-02T03:39:18;100704.34;;;14.43;49.78
74542;BME280;63015;45.378;20.360;2023-05-02T03:41:19;100701.66;;;14.46;49.85
74542;BME280;63015;45.378;20.360;2023-05-02T03:43:26;100690.34;;;14.44;49.58
74542;BME280;63015;45.378;20.360;2023-05-02T03:45:26;100703.38;;;14.52;49.25
74542;BME280;63015;45.378;20.360;2023-05-02T03:47:27;100701.53;;;14.55;49.17
74542;BME280;63015;45.378;20.360;2023-05-02T03:49:28;100700.59;;;14.64;49.00
74542;BME280;63015;45.378;20.360;2023-05-02T03:51:29;100697.97;;;14.67;48.94
74542;BME280;63015;45.378;20.360;2023-05-02T03:53:31;100703.13;;;14.72;48.58
74542;BME280;63015;45.378;20.360;2023-05-02T03:55:32;100701.38;;;14.71;48.71
74542;BME280;63015;45.378;20.360;2023-05-02T03:57:33;100704.88;;;14.73;48.78
74542;BME280;63015;45.378;20.360;2023-05-02T03:59:35;100711.00;;;14.72;48.75
74542;BME280;63015;45.378;20.360;2023-05-02T04:01:48;100707.44;;;14.76;48.51
74542;BME280;63015;45.378;20.360;2023-05-02T04:03:51;100712.69;;;14.77;48.52
74542;BME280;63015;45.378;20.360;2023-05-02T04:05:54;100712.69;;;14.76;48.88
74542;BME280;63015;45.378;20.360;2023-05-02T04:08:00;100690.72;;;14.83;48.80
74542;BME280;63015;45.378;20.360;2023-05-02T04:10:01;100703.88;;;14.82;48.43
74542;BME280;63015;45.378;20.360;2023-05-02T04:12:04;100713.34;;;14.92;48.56
74542;BME280;63015;45.378;20.360;2023-05-02T04:14:06;100713.19;;;15.03;48.14
74542;BME280;63015;45.378;20.360;2023-05-02T04:16:08;100709.84;;;14.91;48.42
74542;BME280;63015;45.378;20.360;2023-05-02T04:18:09;100715.88;;;15.00;48.17
74542;BME280;63015;45.378;20.360;2023-05-02T04:20:11;100722.78;;;15.04;48.48
74542;BME280;63015;45.378;20.360;2023-05-02T04:22:16;100721.72;;;15.19;48.17
74542;BME280;63015;45.378;20.360;2023-05-02T04:24:21;100730.41;;;15.21;47.74
74542;BME280;63015;45.378;20.360;2023-05-02T04:26:21;100726.78;;;15.29;47.88
74542;BME280;63015;45.378;20.360;2023-05-02T04:28:32;100723.94;;;15.43;47.67
74542;BME280;63015;45.378;20.360;2023-05-02T04:30:34;100722.00;;;15.53;47.59
74542;BME280;63015;45.378;20.360;2023-05-02T04:32:41;100730.66;;;15.61;47.27
74542;BME280;63015;45.378;20.360;2023-05-02T04:34:43;100734.09;;;15.65;47.03
74542;BME280;63015;45.378;20.360;2023-05-02T04:36:45;100726.97;;;15.72;47.26
74542;BME280;63015;45.378;20.360;2023-05-02T04:38:50;100740.81;;;15.83;46.75
74542;BME280;63015;45.378;20.360;2023-05-02T04:40:52;100728.56;;;15.82;47.06
74542;BME280;63015;45.378;20.360;2023-05-02T04:42:58;100735.41;;;15.92;47.07
74542;BME280;63015;45.378;20.360;2023-05-02T04:45:05;100736.25;;;15.93;47.23
74542;BME280;63015;45.378;20.360;2023-05-02T04:47:06;100736.06;;;16.04;47.01
74542;BME280;63015;45.378;20.360;2023-05-02T04:49:06;100735.34;;;15.97;46.99
74542;BME280;63015;45.378;20.360;2023-05-02T04:51:08;100742.91;;;16.14;46.97
74542;BME280;63015;45.378;20.360;2023-05-02T04:53:09;100737.50;;;16.22;46.75
74542;BME280;63015;45.378;20.360;2023-05-02T04:55:12;100741.63;;;16.34;47.08
74542;BME280;63015;45.378;20.360;2023-05-02T04:57:14;100737.31;;;16.31;46.53
74542;BME280;63015;45.378;20.360;2023-05-02T04:59:19;100742.34;;;16.42;46.50
74542;BME280;63015;45.378;20.360;2023-05-02T05:01:20;100737.84;;;16.49;46.36
74542;BME280;63015;45.378;20.360;2023-05-02T05:03:21;100735.75;;;16.65;46.37
74542;BME280;63015;45.378;20.360;2023-05-02T05:05:21;100737.31;;;16.73;46.44
74542;BME280;63015;45.378;20.360;2023-05-02T05:07:23;100731.00;;;16.82;45.87
74542;BME280;63015;45.378;20.360;2023-05-02T05:09:26;100731.72;;;16.89;46.21
74542;BME280;63015;45.378;20.360;2023-05-02T05:11:27;100729.94;;;16.91;46.14
74542;BME280;63015;45.378;20.360;2023-05-02T05:13:28;100740.28;;;16.99;45.71
74542;BME280;63015;45.378;20.360;2023-05-02T05:15:28;100734.94;;;17.03;45.96
74542;BME280;63015;45.378;20.360;2023-05-02T05:17:32;100731.38;;;17.06;45.89
74542;BME280;63015;45.378;20.360;2023-05-02T05:19:33;100725.16;;;17.08;45.78
74542;BME280;63015;45.378;20.360;2023-05-02T05:21:33;100731.16;;;17.15;45.92
74542;BME280;63015;45.378;20.360;2023-05-02T05:23:36;100736.38;;;17.18;45.66
74542;BME280;63015;45.378;20.360;2023-05-02T05:25:38;100735.63;;;17.12;46.16
74542;BME280;63015;45.378;20.360;2023-05-02T05:27:39;100733.91;;;17.11;46.31
74542;BME280;63015;45.378;20.360;2023-05-02T05:29:42;100736.56;;;17.09;46.01
74542;BME280;63015;45.378;20.360;2023-05-02T05:31:42;100728.41;;;17.20;46.41
74542;BME280;63015;45.378;20.360;2023-05-02T05:33:46;100737.59;;;17.39;45.82
74542;BME280;63015;45.378;20.360;2023-05-02T05:35:47;100741.09;;;17.41;45.81
74542;BME280;63015;45.378;20.360;2023-05-02T05:37:47;100740.00;;;17.49;46.00
74542;BME280;63015;45.378;20.360;2023-05-02T05:39:50;100737.03;;;17.63;45.40
74542;BME280;63015;45.378;20.360;2023-05-02T05:41:51;100736.81;;;17.72;45.26
74542;BME280;63015;45.378;20.360;2023-05-02T05:43:52;100740.97;;;17.81;45.21
74542;BME280;63015;45.378;20.360;2023-05-02T05:45:54;100746.13;;;17.85;45.09
74542;BME280;63015;45.378;20.360;2023-05-02T05:47:55;100748.88;;;17.81;45.24
74542;BME280;63015;45.378;20.360;2023-05-02T05:49:58;100753.69;;;17.99;45.58
74542;BME280;63015;45.378;20.360;2023-05-02T05:52:02;100762.94;;;18.16;44.63
74542;BME280;63015;45.378;20.360;2023-05-02T05:54:04;100754.75;;;18.25;44.88
74542;BME280;63015;45.378;20.360;2023-05-02T05:56:11;100757.84;;;18.41;44.29
74542;BME280;63015;45.378;20.360;2023-05-02T05:58:16;100756.63;;;18.53;43.55
74542;BME280;63015;45.378;20.360;2023-05-02T06:00:18;100752.03;;;18.61;43.49
74542;BME280;63015;45.378;20.360;2023-05-02T06:02:23;100757.41;;;18.56;42.99
74542;BME280;63015;45.378;20.360;2023-05-02T06:04:24;100762.53;;;18.63;43.51
74542;BME280;63015;45.378;20.360;2023-05-02T06:06:26;100761.91;;;18.83;43.23
74542;BME280;63015;45.378;20.360;2023-05-02T06:08:27;100764.72;;;19.08;42.83
74542;BME280;63015;45.378;20.360;2023-05-02T06:10:29;100763.94;;;19.04;42.05
74542;BME280;63015;45.378;20.360;2023-05-02T06:12:31;100757.28;;;19.21;42.45
74542;BME280;63015;45.378;20.360;2023-05-02T06:14:31;100765.88;;;19.28;42.51
74542;BME280;63015;45.378;20.360;2023-05-02T06:16:32;100758.53;;;19.37;42.21
74542;BME280;63015;45.378;20.360;2023-05-02T06:18:33;100756.69;;;19.66;42.21
74542;BME280;63015;45.378;20.360;2023-05-02T06:20:35;100746.53;;;19.54;41.03
74542;BME280;63015;45.378;20.360;2023-05-02T06:22:36;100756.47;;;19.46;40.82
74542;BME280;63015;45.378;20.360;2023-05-02T06:24:37;100760.50;;;19.58;40.96
74542;BME280;63015;45.378;20.360;2023-05-02T06:26:37;100761.91;;;19.68;41.18
74542;BME280;63015;45.378;20.360;2023-05-02T06:28:38;100763.81;;;19.91;40.35
74542;BME280;63015;45.378;20.360;2023-05-02T06:30:38;100759.34;;;19.93;39.97
74542;BME280;63015;45.378;20.360;2023-05-02T06:32:40;100766.88;;;19.79;40.34
74542;BME280;63015;45.378;20.360;2023-05-02T06:34:43;100771.59;;;19.96;40.31
74542;BME280;63015;45.378;20.360;2023-05-02T06:36:43;100770.03;;;20.15;40.25
74542;BME280;63015;45.378;20.360;2023-05-02T06:38:44;100763.84;;;20.40;39.38
74542;BME280;63015;45.378;20.360;2023-05-02T06:40:45;100756.16;;;20.58;39.61
74542;BME280;63015;45.378;20.360;2023-05-02T06:42:45;100768.44;;;20.60;39.52
74542;BME280;63015;45.378;20.360;2023-05-02T06:44:46;100755.75;;;20.68;39.24
74542;BME280;63015;45.378;20.360;2023-05-02T06:46:47;100759.94;;;20.76;38.99
74542;BME280;63015;45.378;20.360;2023-05-02T06:48:47;100753.94;;;20.47;39.05
74542;BME280;63015;45.378;20.360;2023-05-02T06:50:50;100760.41;;;20.38;39.33
74542;BME280;63015;45.378;20.360;2023-05-02T06:52:50;100759.38;;;20.42;38.96
74542;BME280;63015;45.378;20.360;2023-05-02T06:54:51;100769.41;;;20.34;39.45
74542;BME280;63015;45.378;20.360;2023-05-02T06:56:51;100765.31;;;20.49;39.06
74542;BME280;63015;45.378;20.360;2023-05-02T06:58:53;100759.03;;;20.28;38.89
74542;BME280;63015;45.378;20.360;2023-05-02T07:00:53;100767.38;;;20.41;38.78
74542;BME280;63015;45.378;20.360;2023-05-02T07:02:54;100771.75;;;20.42;39.34
74542;BME280;63015;45.378;20.360;2023-05-02T07:04:55;100760.56;;;20.82;39.16
74542;BME280;63015;45.378;20.360;2023-05-02T07:06:56;100766.97;;;21.23;39.09
74542;BME280;63015;45.378;20.360;2023-05-02T07:08:56;100758.94;;;21.24;38.49
74542;BME280;63015;45.378;20.360;2023-05-02T07:10:57;100756.22;;;21.26;37.81
74542;BME280;63015;45.378;20.360;2023-05-02T07:12:58;100751.38;;;21.37;38.21
74542;BME280;63015;45.378;20.360;2023-05-02T07:14:58;100770.59;;;21.42;37.41
74542;BME280;63015;45.378;20.360;2023-05-02T07:16:59;100761.84;;;21.40;37.82
74542;BME280;63015;45.378;20.360;2023-05-02T07:19:00;100757.81;;;21.52;37.68
74542;BME280;63015;45.378;20.360;2023-05-02T07:21:00;100759.84;;;21.67;37.86
74542;BME280;63015;45.378;20.360;2023-05-02T07:23:02;100765.72;;;21.96;38.08
74542;BME280;63015;45.378;20.360;2023-05-02T07:25:02;100773.03;;;22.12;37.86
74542;BME280;63015;45.378;20.360;2023-05-02T07:27:03;100775.25;;;22.21;37.46
74542;BME280;63015;45.378;20.360;2023-05-02T07:29:04;100770.34;;;22.53;37.28
74542;BME280;63015;45.378;20.360;2023-05-02T07:31:06;100768.72;;;22.70;37.09
74542;BME280;63015;45.378;20.360;2023-05-02T07:33:06;100774.16;;;22.66;35.87
74542;BME280;63015;45.378;20.360;2023-05-02T07:35:07;100769.25;;;22.57;36.02
74542;BME280;63015;45.378;20.360;2023-05-02T07:37:08;100761.38;;;22.56;35.67
74542;BME280;63015;45.378;20.360;2023-05-02T07:39:09;100776.06;;;22.44;35.53
74542;BME280;63015;45.378;20.360;2023-05-02T07:41:09;100776.34;;;22.17;35.87
74542;BME280;63015;45.378;20.360;2023-05-02T07:43:10;100775.72;;;22.31;36.11
74542;BME280;63015;45.378;20.360;2023-05-02T07:45:11;100777.31;;;22.35;36.25
74542;BME280;63015;45.378;20.360;2023-05-02T07:47:11;100773.16;;;22.69;36.17
74542;BME280;63015;45.378;20.360;2023-05-02T07:49:12;100783.94;;;22.85;35.03
74542;BME280;63015;45.378;20.360;2023-05-02T07:51:13;100770.28;;;22.55;35.49
74542;BME280;63015;45.378;20.360;2023-05-02T07:53:13;100768.91;;;22.65;35.15
74542;BME280;63015;45.378;20.360;2023-05-02T07:55:14;100771.59;;;22.84;35.10
74542;BME280;63015;45.378;20.360;2023-05-02T07:57:15;100773.53;;;22.80;35.21
74542;BME280;63015;45.378;20.360;2023-05-02T07:59:15;100776.91;;;23.03;34.83
74542;BME280;63015;45.378;20.360;2023-05-02T08:01:16;100778.06;;;23.17;34.69
74542;BME280;63015;45.378;20.360;2023-05-02T08:03:17;100778.41;;;23.28;34.37
74542;BME280;63015;45.378;20.360;2023-05-02T08:05:18;100777.53;;;23.27;34.38
74542;BME280;63015;45.378;20.360;2023-05-02T08:07:18;100779.34;;;23.27;34.08
74542;BME280;63015;45.378;20.360;2023-05-02T08:09:19;100782.53;;;23.16;33.99
74542;BME280;63015;45.378;20.360;2023-05-02T08:11:19;100773.78;;;23.12;34.37
74542;BME280;63015;45.378;20.360;2023-05-02T08:13:24;100783.91;;;23.42;34.06
74542;BME280;63015;45.378;20.360;2023-05-02T08:15:26;100771.03;;;23.70;33.98
74542;BME280;63015;45.378;20.360;2023-05-02T08:17:27;100773.34;;;23.95;34.12
74542;BME280;63015;45.378;20.360;2023-05-02T08:19:28;100778.66;;;23.95;33.21
74542;BME280;63015;45.378;20.360;2023-05-02T08:21:29;100791.41;;;24.06;33.21
74542;BME280;63015;45.378;20.360;2023-05-02T08:23:30;100787.44;;;23.97;32.69
74542;BME280;63015;45.378;20.360;2023-05-02T08:25:31;100782.25;;;23.76;33.34
74542;BME280;63015;45.378;20.360;2023-05-02T08:27:31;100779.72;;;23.73;32.88
74542;BME280;63015;45.378;20.360;2023-05-02T08:29:34;100781.66;;;23.52;32.79
74542;BME280;63015;45.378;20.360;2023-05-02T08:31:35;100786.81;;;23.55;33.15
74542;BME280;63015;45.378;20.360;2023-05-02T08:33:35;100784.19;;;23.73;33.28
74542;BME280;63015;45.378;20.360;2023-05-02T08:35:36;100774.25;;;23.76;32.96
74542;BME280;63015;45.378;20.360;2023-05-02T08:37:38;100789.53;;;23.90;32.58
74542;BME280;63015;45.378;20.360;2023-05-02T08:39:38;100775.00;;;23.61;32.33
74542;BME280;63015;45.378;20.360;2023-05-02T08:41:39;100774.97;;;23.97;32.70
74542;BME280;63015;45.378;20.360;2023-05-02T08:43:40;100773.13;;;24.00;32.31
74542;BME280;63015;45.378;20.360;2023-05-02T08:45:42;100780.94;;;24.03;32.99
74542;BME280;63015;45.378;20.360;2023-05-02T08:47:43;100795.06;;;23.86;32.32
74542;BME280;63015;45.378;20.360;2023-05-02T08:49:45;100779.50;;;23.95;32.69
74542;BME280;63015;45.378;20.360;2023-05-02T08:51:48;100773.16;;;23.98;31.78
74542;BME280;63015;45.378;20.360;2023-05-02T08:53:51;100786.97;;;24.06;31.90
74542;BME280;63015;45.378;20.360;2023-05-02T08:55:52;100772.06;;;24.20;31.73
74542;BME280;63015;45.378;20.360;2023-05-02T08:57:56;100767.63;;;24.20;31.48
74542;BME280;63015;45.378;20.360;2023-05-02T08:59:57;100768.66;;;24.34;31.51
74542;BME280;63015;45.378;20.360;2023-05-02T09:02:00;100780.00;;;24.04;31.29
74542;BME280;63015;45.378;20.360;2023-05-02T09:04:04;100797.59;;;24.06;31.87
74542;BME280;63015;45.378;20.360;2023-05-02T09:06:08;100774.75;;;24.02;31.82
74542;BME280;63015;45.378;20.360;2023-05-02T09:08:09;100770.72;;;24.11;31.18
74542;BME280;63015;45.378;20.360;2023-05-02T09:10:10;100756.59;;;24.26;31.66
74542;BME280;63015;45.378;20.360;2023-05-02T09:12:11;100771.03;;;24.22;30.96
74542;BME280;63015;45.378;20.360;2023-05-02T09:14:15;100764.09;;;24.02;31.32
74542;BME280;63015;45.378;20.360;2023-05-02T09:16:20;100779.91;;;24.23;31.13
74542;BME280;63015;45.378;20.360;2023-05-02T09:18:22;100765.25;;;24.14;31.20
74542;BME280;63015;45.378;20.360;2023-05-02T09:20:22;100778.81;;;24.09;31.19
74542;BME280;63015;45.378;20.360;2023-05-02T09:22:23;100786.34;;;24.01;31.21
74542;BME280;63015;45.378;20.360;2023-05-02T09:24:24;100769.66;;;24.15;31.13
74542;BME280;63015;45.378;20.360;2023-05-02T09:26:29;100786.09;;;24.06;30.74
74542;BME280;63015;45.378;20.360;2023-05-02T09:28:41;100769.38;;;24.37;31.24
74542;BME280;63015;45.378;20.360;2023-05-02T09:30:42;100768.75;;;24.32;30.99
74542;BME280;63015;45.378;20.360;2023-05-02T09:32:47;100768.47;;;24.21;30.57
74542;BME280;63015;45.378;20.360;2023-05-02T09:35:06;100772.16;;;24.52;30.92
74542;BME280;63015;45.378;20.360;2023-05-02T09:37:06;100765.31;;;24.30;30.79
74542;BME280;63015;45.378;20.360;2023-05-02T09:39:18;100758.59;;;24.23;31.32
74542;BME280;63015;45.378;20.360;2023-05-02T09:41:19;100761.78;;;24.29;31.63
74542;BME280;63015;45.378;20.360;2023-05-02T09:43:21;100763.66;;;24.61;31.78
74542;BME280;63015;45.378;20.360;2023-05-02T09:45:23;100766.63;;;24.55;31.32
74542;BME280;63015;45.378;20.360;2023-05-02T09:47:24;100760.16;;;24.27;31.13
74542;BME280;63015;45.378;20.360;2023-05-02T09:51:40;100761.47;;;24.36;31.00
74542;BME280;63015;45.378;20.360;2023-05-02T09:53:43;100754.09;;;24.41;31.63
74542;BME280;63015;45.378;20.360;2023-05-02T09:55:44;100753.91;;;24.28;31.65
74542;BME280;63015;45.378;20.360;2023-05-02T09:57:45;100750.84;;;24.01;31.83
74542;BME280;63015;45.378;20.360;2023-05-02T09:59:54;100765.00;;;23.66;31.91
74542;BME280;63015;45.378;20.360;2023-05-02T10:01:55;100764.31;;;23.62;31.98
74542;BME280;63015;45.378;20.360;2023-05-02T10:03:56;100773.06;;;23.64;32.41
74542;BME280;63015;45.378;20.360;2023-05-02T10:05:57;100762.94;;;23.36;32.26
74542;BME280;63015;45.378;20.360;2023-05-02T10:07:58;100753.72;;;23.43;32.55
74542;BME280;63015;45.378;20.360;2023-05-02T10:10:00;100763.31;;;23.28;32.48
74542;BME280;63015;45.378;20.360;2023-05-02T10:12:02;100767.72;;;23.47;33.08
74542;BME280;63015;45.378;20.360;2023-05-02T10:14:08;100765.00;;;23.66;33.23
74542;BME280;63015;45.378;20.360;2023-05-02T10:16:11;100756.25;;;23.64;32.97
74542;BME280;63015;45.378;20.360;2023-05-02T10:18:16;100756.94;;;23.50;32.33
74542;BME280;63015;45.378;20.360;2023-05-02T10:20:22;100759.47;;;23.88;32.16
74542;BME280;63015;45.378;20.360;2023-05-02T10:22:25;100742.66;;;24.05;32.58
74542;BME280;63015;45.378;20.360;2023-05-02T10:24:27;100738.97;;;24.41;32.31
74542;BME280;63015;45.378;20.360;2023-05-02T10:26:28;100764.44;;;24.63;32.20
74542;BME280;63015;45.378;20.360;2023-05-02T10:28:29;100745.94;;;24.44;30.70
74542;BME280;63015;45.378;20.360;2023-05-02T10:30:29;100731.63;;;24.29;31.36
74542;BME280;63015;45.378;20.360;2023-05-02T10:32:34;100734.66;;;24.05;31.62
74542;BME280;63015;45.378;20.360;2023-05-02T10:34:37;100737.31;;;24.05;31.81
74542;BME280;63015;45.378;20.360;2023-05-02T10:36:39;100734.13;;;23.99;31.98
74542;BME280;63015;45.378;20.360;2023-05-02T10:38:41;100736.63;;;24.02;31.95
74542;BME280;63015;45.378;20.360;2023-05-02T10:40:47;100739.75;;;24.10;31.77
74542;BME280;63015;45.378;20.360;2023-05-02T10:42:55;100717.56;;;24.43;31.35
74542;BME280;63015;45.378;20.360;2023-05-02T10:44:56;100729.34;;;24.55;31.00
74542;BME280;63015;45.378;20.360;2023-05-02T10:46:57;100737.50;;;24.85;31.11
74542;BME280;63015;45.378;20.360;2023-05-02T10:49:01;100723.56;;;25.12;30.28
74542;BME280;63015;45.378;20.360;2023-05-02T10:51:02;100710.38;;;25.09;29.54